Time;durP1;ratioP1;P1;durP2;ratioP2;P2;SDS_P1;SDS_P2;PMS_P1;PMS_P2;Temp;Humidity;BMP_temperature;BMP_pressure;BME280_temperature;BME280_humidity;BME280_pressure;Samples;Min_cycle;Max_cycle;Signal;HPM_P1;HPM_P2
2022/10/26 00:01:20;;;;;;;12.05;5.85;;;;;;;6.80;95.68;101426.28;10195467;29;20067;-78
2022/10/26 00:06:24;;;;;;;9.77;5.55;;;;;;;6.77;95.69;101431.34;10202833;29;20054;-77
2022/10/26 00:11:25;;;;;;;10.90;5.35;;;;;;;6.73;95.74;101424.22;10202969;29;20040;-76
2022/10/26 00:16:27;;;;;;;14.68;5.90;;;;;;;6.72;95.50;101427.66;10203533;29;20035;-76
2022/10/26 00:21:28;;;;;;;11.52;5.63;;;;;;;6.78;95.92;101427.91;10202229;29;20500;-77
2022/10/26 00:26:30;;;;;;;12.13;5.70;;;;;;;6.80;95.79;101426.28;10202413;29;20456;-76
2022/10/26 00:31:32;;;;;;;12.95;6.22;;;;;;;6.80;96.26;101431.47;10201784;29;20342;-76
2022/10/26 00:36:33;;;;;;;13.32;6.97;;;;;;;6.80;96.00;101431.47;10201553;29;20424;-76
2022/10/26 00:41:35;;;;;;;13.73;6.72;;;;;;;6.84;96.10;101432.50;10201141;29;20054;-77
2022/10/26 00:46:37;;;;;;;14.05;7.00;;;;;;;6.85;96.11;101439.47;10201352;29;20489;-75
2022/10/26 00:51:44;;;;;;;16.65;7.55;;;;;;;6.93;96.12;101437.19;10200819;29;20055;-76
2022/10/26 00:56:50;;;;;;;13.73;6.85;;;;;;;6.90;96.27;101436.25;10200889;29;20044;-76
2022/10/26 01:01:52;;;;;;;15.63;7.60;;;;;;;6.96;96.56;101432.13;10198537;29;20078;-76
2022/10/26 01:06:54;;;;;;;16.30;7.68;;;;;;;7.02;96.40;101421.97;10183167;29;20460;-77
2022/10/26 01:11:56;;;;;;;17.00;7.60;;;;;;;7.03;96.58;101419.41;10199960;29;20055;-76
2022/10/26 01:17:19;;;;;;;18.77;9.23;;;;;;;7.00;96.57;101423.63;10200465;29;20417;-76
2022/10/26 01:22:27;;;;;;;21.25;8.48;;;;;;;7.03;96.69;101426.34;10177228;29;20128;-76
2022/10/26 01:27:35;;;;;;;16.95;8.82;;;;;;;7.05;96.67;101412.53;10182433;29;20051;-77
2022/10/26 01:33:09;;;;;;;18.48;8.85;;;;;;;7.07;96.96;101408.31;10198934;29;20469;-76
2022/10/26 01:38:37;;;;;;;19.58;8.77;;;;;;;7.14;97.02;101400.75;10192563;29;20047;-77
2022/10/26 01:43:48;;;;;;;19.27;9.20;;;;;;;7.22;97.01;101395.03;10198890;29;20336;-77
2022/10/26 01:48:54;;;;;;;23.98;10.60;;;;;;;7.38;97.14;101390.44;10198942;29;20040;-76
2022/10/26 01:53:57;;;;;;;15.95;8.85;;;;;;;7.43;97.17;101400.22;10182147;29;20059;-76
2022/10/26 01:59:16;;;;;;;17.40;9.68;;;;;;;7.46;97.37;101383.81;10198407;29;20051;-78
2022/10/26 02:04:24;;;;;;;15.93;9.27;;;;;;;7.56;97.63;101385.03;10192472;29;20114;-76
2022/10/26 02:09:47;;;;;;;23.20;9.55;;;;;;;7.46;97.46;101378.59;10180821;29;20044;-77
2022/10/26 02:14:55;;;;;;;17.17;9.60;;;;;;;7.48;97.63;101371.72;10197923;29;20060;-77
2022/10/26 02:20:02;;;;;;;18.75;9.15;;;;;;;7.63;97.68;101373.13;10196927;29;20043;-77
2022/10/26 02:25:08;;;;;;;22.00;10.93;;;;;;;7.72;97.86;101365.69;10197609;29;20098;-76
2022/10/26 02:30:12;;;;;;;20.13;10.45;;;;;;;7.83;97.97;101356.53;10196496;29;20047;-76
2022/10/26 02:35:17;;;;;;;20.73;11.35;;;;;;;7.92;98.02;101341.22;10197251;29;20095;-76
2022/10/26 02:40:24;;;;;;;18.13;10.63;;;;;;;7.95;98.20;101346.53;10197186;29;20494;-77
2022/10/26 02:45:31;;;;;;;24.23;11.85;;;;;;;7.91;98.55;101334.25;10196859;29;20040;-76
2022/10/26 02:51:00;;;;;;;22.08;11.43;;;;;;;7.84;98.45;101328.75;10196316;29;20047;-77
2022/10/26 02:56:08;;;;;;;23.10;11.73;;;;;;;7.83;98.42;101322.63;10195997;29;20178;-76
2022/10/26 03:01:10;;;;;;;23.52;11.25;;;;;;;7.76;98.33;101320.63;10196614;29;20054;-78
2022/10/26 03:06:19;;;;;;;22.98;12.55;;;;;;;7.71;98.65;101317.84;10189395;29;20531;-77
2022/10/26 03:11:20;;;;;;;24.80;12.15;;;;;;;7.66;98.71;101334.19;10179188;29;20420;-76
2022/10/26 03:16:22;;;;;;;23.73;11.63;;;;;;;7.63;98.61;101323.59;10197008;29;20118;-77
2022/10/26 03:21:23;;;;;;;23.00;11.63;;;;;;;7.56;98.55;101325.97;10195299;29;20496;-77
2022/10/26 03:26:25;;;;;;;23.25;11.20;;;;;;;7.52;98.82;101326.72;10195818;29;20054;-76
2022/10/26 03:31:26;;;;;;;24.52;11.63;;;;;;;7.49;98.84;101318.78;10177662;29;20040;-79
2022/10/26 03:36:28;;;;;;;21.10;11.50;;;;;;;7.48;98.67;101332.63;10196710;29;20060;-76
2022/10/26 03:41:29;;;;;;;23.98;11.05;;;;;;;7.55;98.95;101331.13;10207286;29;20102;-76
2022/10/26 03:46:31;;;;;;;28.38;11.70;;;;;;;7.56;98.97;101327.72;10208628;29;21313;-77
2022/10/26 03:51:33;;;;;;;19.98;11.15;;;;;;;7.57;98.95;101326.91;10208136;29;20514;-77
2022/10/26 03:56:35;;;;;;;21.48;11.57;;;;;;;7.55;98.79;101320.72;10208137;29;20411;-76
2022/10/26 04:01:36;;;;;;;23.48;11.77;;;;;;;7.64;99.10;101325.38;10208129;29;20150;-77
2022/10/26 04:06:38;;;;;;;26.55;11.45;;;;;;;7.64;99.19;101330.59;10205865;29;20050;-76
2022/10/26 04:11:40;;;;;;;22.23;12.18;;;;;;;7.50;99.13;101328.34;10189359;29;20477;-76
2022/10/26 04:16:41;;;;;;;20.73;11.55;;;;;;;7.44;99.15;101331.59;10191222;29;20047;-77
2022/10/26 04:21:43;;;;;;;22.35;11.13;;;;;;;7.42;99.10;101324.59;10208291;29;20219;-76
2022/10/26 04:26:44;;;;;;;22.30;10.52;;;;;;;7.51;99.14;101335.34;10190599;29;20245;-76
2022/10/26 04:31:46;;;;;;;29.00;11.30;;;;;;;7.59;99.25;101339.13;10190084;29;20508;-76
2022/10/26 04:36:47;;;;;;;23.48;11.02;;;;;;;7.64;99.24;101336.72;10207951;29;20048;-76
2022/10/26 04:41:48;;;;;;;21.55;11.10;;;;;;;7.54;99.31;101335.47;10206850;29;20110;-76
2022/10/26 04:46:50;;;;;;;23.80;11.32;;;;;;;7.43;99.10;101326.34;10208672;29;20299;-75
2022/10/26 04:51:51;;;;;;;19.55;10.20;;;;;;;7.39;99.29;101319.25;10202988;29;20095;-76
2022/10/26 04:56:53;;;;;;;24.50;10.10;;;;;;;7.32;99.23;101322.44;10183959;29;20516;-76
2022/10/26 05:01:54;;;;;;;21.85;9.77;;;;;;;7.24;99.23;101319.53;10200175;29;20103;-76
2022/10/26 05:06:56;;;;;;;23.38;10.18;;;;;;;7.23;99.19;101322.97;10201200;29;20047;-76
2022/10/26 05:11:58;;;;;;;24.48;9.25;;;;;;;7.23;99.29;101310.81;10183309;29;20091;-76
2022/10/26 05:16:59;;;;;;;21.48;9.73;;;;;;;7.15;99.19;101312.25;10200216;29;20048;-75
2022/10/26 05:22:01;;;;;;;17.27;9.02;;;;;;;7.06;99.40;101304.09;10200146;29;20055;-76
2022/10/26 05:27:02;;;;;;;15.18;8.55;;;;;;;6.93;99.32;101315.72;10200428;29;20040;-76
2022/10/26 05:32:04;;;;;;;17.73;8.90;;;;;;;6.82;99.12;101304.88;10199689;29;20043;-76
2022/10/26 05:37:05;;;;;;;20.65;9.15;;;;;;;6.85;99.35;101310.19;10200154;29;20040;-76
2022/10/26 05:42:06;;;;;;;17.55;8.73;;;;;;;6.71;99.33;101301.84;10198911;29;20051;-76
2022/10/26 05:47:08;;;;;;;16.90;8.73;;;;;;;6.69;99.34;101308.66;10199760;29;20469;-75
2022/10/26 05:52:09;;;;;;;18.98;8.85;;;;;;;6.60;99.27;101315.22;10199580;29;20468;-76
2022/10/26 05:57:12;;;;;;;19.58;9.50;;;;;;;6.55;99.17;101310.72;10200030;29;20363;-75
2022/10/26 06:02:25;;;;;;;19.52;9.18;;;;;;;6.53;99.31;101332.28;10198776;29;20055;-76
2022/10/26 06:07:27;;;;;;;18.08;8.23;;;;;;;6.44;99.17;101332.81;10181726;29;20047;-76
2022/10/26 06:12:29;;;;;;;20.05;8.45;;;;;;;6.33;99.29;101344.44;10197055;29;20654;-76
2022/10/26 06:17:52;;;;;;;17.58;8.13;;;;;;;6.28;99.11;101346.84;10198903;29;20048;-75
2022/10/26 06:23:15;;;;;;;16.10;7.93;;;;;;;6.23;99.29;101337.97;10180116;29;20052;-75
2022/10/26 06:28:43;;;;;;;16.17;8.02;;;;;;;6.23;99.26;101339.66;10197050;29;20576;-75
2022/10/26 06:33:51;;;;;;;17.45;9.00;;;;;;;6.23;99.08;101348.38;10188635;29;20425;-76
2022/10/26 06:39:00;;;;;;;15.50;8.90;;;;;;;6.34;99.18;101346.22;10197948;29;20040;-75
2022/10/26 06:44:04;;;;;;;18.42;9.30;;;;;;;6.53;99.34;101348.81;10197080;29;20123;-74
2022/10/26 06:49:32;;;;;;;23.20;8.55;;;;;;;6.79;99.30;101350.72;10196288;29;20281;-74
2022/10/26 06:54:53;;;;;;;15.55;8.30;;;;;;;7.07;99.31;101344.91;10188983;29;20126;-75
2022/10/26 07:00:01;;;;;;;15.80;7.97;;;;;;;7.31;99.45;101352.84;10180005;29;20397;-75
2022/10/26 07:05:03;;;;;;;18.88;8.98;;;;;;;7.50;99.52;101344.00;10196815;29;20043;-75
2022/10/26 07:10:06;;;;;;;20.20;9.48;;;;;;;7.69;99.53;101345.59;10196212;29;20499;-75
2022/10/26 07:15:07;;;;;;;19.52;9.75;;;;;;;7.84;99.59;101354.84;10197611;29;20059;-77
2022/10/26 07:20:16;;;;;;;18.50;8.57;;;;;;;8.01;99.67;101350.22;10197247;29;20675;-75
2022/10/26 07:25:17;;;;;;;28.08;9.48;;;;;;;8.20;99.50;101342.25;10199441;29;20471;-74
2022/10/26 07:30:19;;;;;;;18.98;7.68;;;;;;;8.40;99.69;101342.03;10199940;29;20452;-76
2022/10/26 07:35:20;;;;;;;14.90;8.05;;;;;;;8.59;99.66;101335.78;10184044;29;20044;-75
2022/10/26 07:40:22;;;;;;;16.92;8.48;;;;;;;8.76;99.85;101341.56;10200978;29;20043;-74
2022/10/26 07:45:25;;;;;;;15.68;8.07;;;;;;;8.84;99.83;101345.31;10203327;29;20282;-74
2022/10/26 07:50:27;;;;;;;17.63;8.45;;;;;;;9.60;99.91;101353.78;10182544;29;20412;-77
2022/10/26 07:55:28;;;;;;;18.23;9.20;;;;;;;12.19;99.68;101331.38;10164881;29;20040;-75
2022/10/26 08:00:30;;;;;;;16.88;9.65;;;;;;;12.81;98.83;101343.00;10160584;29;20396;-74
2022/10/26 08:05:31;;;;;;;18.48;9.75;;;;;;;15.47;96.04;101330.22;10167715;29;20461;-76
2022/10/26 08:10:33;;;;;;;27.35;10.88;;;;;;;16.58;88.58;101335.88;10179587;29;20050;-75
2022/10/26 08:15:35;;;;;;;20.30;10.45;;;;;;;14.70;84.63;101341.09;10163326;29;20104;-77
2022/10/26 08:20:36;;;;;;;18.00;6.65;;;;;;;13.24;84.43;101346.31;10159646;29;20524;-77
2022/10/26 08:25:38;;;;;;;14.15;6.85;;;;;;;12.35;85.59;101356.19;10190364;29;20051;-74
2022/10/26 08:30:39;;;;;;;16.10;6.50;;;;;;;12.10;86.73;101354.84;10172490;29;20159;-75
2022/10/26 08:35:41;;;;;;;11.23;5.57;;;;;;;12.09;87.51;101345.19;10173877;29;20096;-76
2022/10/26 08:40:42;;;;;;;12.38;6.43;;;;;;;12.13;88.17;101344.41;10183136;29;20048;-76
2022/10/26 08:45:58;;;;;;;14.75;5.97;;;;;;;12.26;88.70;101345.50;10180082;29;20044;-76
2022/10/26 08:51:19;;;;;;;11.50;5.40;;;;;;;12.31;88.91;101333.38;10180017;29;20057;-75
2022/10/26 08:56:25;;;;;;;13.85;5.75;;;;;;;12.35;88.95;101342.16;10182182;29;20044;-77
2022/10/26 09:01:30;;;;;;;14.02;5.50;;;;;;;12.76;89.19;101338.50;10173693;29;20115;-76
2022/10/26 09:06:45;;;;;;;15.23;5.80;;;;;;;13.40;88.83;101334.28;10181378;29;20401;-78
2022/10/26 09:11:47;;;;;;;10.55;4.80;;;;;;;13.08;87.76;101331.16;10182235;29;20507;-75
2022/10/26 09:17:10;;;;;;;9.73;4.65;;;;;;;13.21;87.63;101330.50;10194266;29;20054;-75
2022/10/26 09:22:27;;;;;;;11.73;4.65;;;;;;;13.94;87.17;101321.81;10184991;29;20052;-76
2022/10/26 09:27:36;;;;;;;9.73;5.05;;;;;;;14.53;85.74;101317.16;10184909;29;20110;-76
2022/10/26 09:32:44;;;;;;;16.50;4.93;;;;;;;14.68;84.59;101305.91;10192364;29;20079;-75
2022/10/26 09:38:02;;;;;;;7.82;4.15;;;;;;;14.93;83.68;101312.25;10179788;29;20059;-78
2022/10/26 09:43:12;;;;;;;13.55;4.75;;;;;;;15.10;82.67;101315.03;10182858;29;20047;-75
2022/10/26 09:48:21;;;;;;;10.57;4.30;;;;;;;15.19;81.83;101315.09;10189681;29;20110;-75
2022/10/26 09:53:22;;;;;;;8.40;3.50;;;;;;;15.49;81.38;101320.53;10186043;29;20047;-76
2022/10/26 09:58:29;;;;;;;8.88;3.40;;;;;;;15.52;80.69;101318.81;10186431;29;20509;-77
2022/10/26 10:03:31;;;;;;;8.88;3.20;;;;;;;15.98;80.02;101328.69;10197217;29;20427;-76
2022/10/26 10:08:32;;;;;;;8.00;2.90;;;;;;;15.90;79.41;101325.16;10198883;29;20039;-77
2022/10/26 10:13:37;;;;;;;5.28;2.50;;;;;;;15.39;78.94;101332.81;10185608;29;20058;-77
2022/10/26 10:18:40;;;;;;;10.02;3.03;;;;;;;15.11;79.41;101343.16;10155829;29;20051;-76
2022/10/26 10:23:48;;;;;;;7.55;3.13;;;;;;;15.18;80.15;101355.53;10171712;29;20048;-76
2022/10/26 10:28:58;;;;;;;11.50;3.50;;;;;;;15.10;80.12;101340.50;10167647;29;20047;-75
2022/10/26 10:34:14;;;;;;;6.05;2.95;;;;;;;15.08;80.20;101363.38;10181332;29;20173;-75
2022/10/26 10:39:39;;;;;;;6.82;3.50;;;;;;;15.23;80.28;101358.19;10187366;29;20333;-75
2022/10/26 10:44:43;;;;;;;16.25;3.45;;;;;;;15.30;80.49;101365.28;10193188;29;20051;-76
2022/10/26 10:49:54;;;;;;;7.78;3.30;;;;;;;15.42;80.21;101368.88;10187268;29;20051;-76
2022/10/26 10:55:12;;;;;;;9.73;3.35;;;;;;;15.50;80.30;101373.31;10173234;29;20056;-75
2022/10/26 11:00:14;;;;;;;8.93;3.17;;;;;;;15.90;80.36;101367.41;10193427;29;20040;-76
2022/10/26 11:05:22;;;;;;;8.85;3.50;;;;;;;15.98;79.50;101365.69;10196606;29;20495;-75
2022/10/26 11:10:35;;;;;;;9.20;3.20;;;;;;;16.18;79.07;101370.16;10188513;29;20079;-77
2022/10/26 11:15:41;;;;;;;8.27;3.30;;;;;;;16.59;78.84;101380.81;10174645;29;20130;-76
2022/10/26 11:20:50;;;;;;;11.07;3.75;;;;;;;16.82;77.75;101385.25;10189313;29;20500;-76
2022/10/26 11:25:58;;;;;;;9.30;3.40;;;;;;;17.02;76.46;101371.19;10196444;29;20095;-76
2022/10/26 11:31:04;;;;;;;7.72;2.67;;;;;;;16.95;75.85;101370.31;10179001;29;20040;-76
2022/10/26 11:36:14;;;;;;;9.15;2.88;;;;;;;16.97;75.79;101381.78;10196458;29;20496;-75
2022/10/26 11:41:44;;;;;;;6.40;2.45;;;;;;;17.41;74.90;101374.69;10185353;29;20536;-76
2022/10/26 11:46:54;;;;;;;6.13;2.10;;;;;;;17.61;74.85;101377.25;10183355;29;20420;-76
2022/10/26 11:51:56;;;;;;;;;;;;;;;17.88;74.17;101388.66;10190092;29;20044;-75
2022/10/26 11:56:58;;;;;;;7.30;2.47;;;;;;;18.06;73.39;101378.06;10178129;29;19969;-75
2022/10/26 12:02:03;;;;;;;;;;;;;;;18.17;73.24;101375.34;10194593;29;20426;-74
2022/10/26 12:07:15;;;;;;;6.22;1.92;;;;;;;18.10;72.93;101374.47;10195636;29;19923;-75
2022/10/26 12:12:28;;;;;;;6.38;2.25;;;;;;;17.91;71.94;101372.78;10174041;29;20575;-75
2022/10/26 12:17:41;;;;;;;9.43;2.38;;;;;;;17.82;71.54;101368.41;10179467;29;20298;-78
2022/10/26 12:22:43;;;;;;;4.77;2.30;;;;;;;17.86;71.45;101370.13;10196359;29;20060;-79
2022/10/26 12:27:45;;;;;;;5.25;2.35;;;;;;;17.85;71.51;101369.25;10188548;29;20051;-78
2022/10/26 12:32:47;;;;;;;4.72;1.73;;;;;;;18.16;71.35;101369.13;10185559;29;20158;-79
2022/10/26 12:37:49;;;;;;;5.72;2.15;;;;;;;18.24;70.75;101373.53;10203129;29;20134;-78
2022/10/26 12:42:51;;;;;;;6.78;2.10;;;;;;;18.19;70.47;101384.16;10199060;29;24458;-80
2022/10/26 12:47:52;;;;;;;5.85;2.22;;;;;;;18.22;70.57;101388.56;10196461;29;20524;-79
2022/10/26 12:53:05;;;;;;;4.55;2.05;;;;;;;18.33;70.63;101384.06;10199600;29;20056;-80
2022/10/26 12:59:03;;;;;;;5.65;2.03;;;;;;;18.62;70.52;101385.69;10201509;29;20089;-79
2022/10/26 13:04:46;;;;;;;8.18;2.30;;;;;;;18.61;70.27;101382.13;10067894;29;20089;-75
2022/10/26 13:10:10;;;;;;;7.28;2.50;;;;;;;18.84;70.15;101389.94;10180727;29;20512;-76
2022/10/26 13:15:31;;;;;;;5.88;2.30;;;;;;;18.78;70.12;101395.31;10197583;29;20043;-77
2022/10/26 13:20:35;;;;;;;6.07;2.20;;;;;;;18.70;70.41;101397.97;10192684;29;20048;-78
2022/10/26 13:25:37;;;;;;;7.63;2.05;;;;;;;18.69;70.81;101396.25;10190103;29;20051;-75
2022/10/26 13:30:45;;;;;;;5.97;2.53;;;;;;;18.49;70.52;101406.09;10200172;29;20043;-75
2022/10/26 13:35:50;;;;;;;6.05;1.85;;;;;;;18.46;70.92;101399.03;10189398;29;20059;-76
2022/10/26 13:40:59;;;;;;;5.93;2.05;;;;;;;18.41;71.07;101410.56;10183940;29;20112;-75
2022/10/26 13:46:03;;;;;;;4.78;1.52;;;;;;;18.34;71.12;101407.06;10191818;29;20107;-75
2022/10/26 13:51:19;;;;;;;6.38;2.03;;;;;;;18.30;71.43;101429.16;10192315;29;20047;-78
2022/10/26 13:56:28;;;;;;;4.47;1.73;;;;;;;18.24;71.32;101421.22;10199244;29;20039;-75
2022/10/26 14:01:31;;;;;;;4.53;1.65;;;;;;;18.25;71.53;101423.00;10193648;29;20051;-74
2022/10/26 14:06:36;;;;;;;16.38;3.47;;;;;;;18.27;71.24;101429.16;10175772;29;20047;-75
2022/10/26 14:11:47;;;;;;;4.50;1.80;;;;;;;18.22;71.86;101429.19;10179130;29;20040;-74
2022/10/26 14:16:51;;;;;;;7.28;2.10;;;;;;;18.24;71.98;101427.44;10193315;29;20098;-77
2022/10/26 14:21:53;;;;;;;6.95;1.67;;;;;;;18.35;72.53;101422.09;10161389;29;20063;-76
2022/10/26 14:26:55;;;;;;;7.95;2.08;;;;;;;18.28;72.32;101423.88;10186735;29;20099;-77
2022/10/26 14:31:57;;;;;;;5.03;1.75;;;;;;;18.28;72.46;101423.00;10187714;29;20684;-76
2022/10/26 14:37:01;;;;;;;7.35;2.00;;;;;;;18.19;72.44;101432.75;10186907;29;20048;-76
2022/10/26 14:42:28;;;;;;;8.25;1.70;;;;;;;18.09;73.21;101425.72;10184389;29;20050;-75
2022/10/26 14:47:32;;;;;;;5.25;1.38;;;;;;;18.04;73.22;101446.06;10182495;29;20040;-75
2022/10/26 14:52:35;;;;;;;13.73;2.40;;;;;;;17.97;73.61;101441.66;10185233;29;20040;-75
2022/10/26 14:57:38;;;;;;;5.40;1.70;;;;;;;17.94;74.16;101446.97;10182040;29;20070;-79
2022/10/26 15:02:41;;;;;;;11.13;1.77;;;;;;;17.86;74.36;101439.00;10194962;29;20075;-76
2022/10/26 15:07:44;;;;;;;5.40;1.75;;;;;;;17.75;74.75;101449.63;10195882;29;20523;-77
2022/10/26 15:12:45;;;;;;;7.28;1.80;;;;;;;17.65;74.91;101464.69;10194659;29;20055;-77
2022/10/26 15:17:51;;;;;;;4.00;1.48;;;;;;;17.54;75.06;101477.03;10202130;28;20055;-77
2022/10/26 15:22:56;;;;;;;4.72;1.65;;;;;;;17.45;75.52;101480.56;10186901;29;20055;-78
2022/10/26 15:28:19;;;;;;;3.63;1.70;;;;;;;17.25;75.90;101479.66;10195308;29;20533;-77
2022/10/26 15:33:21;;;;;;;5.88;1.60;;;;;;;17.10;76.19;101486.72;10194560;29;20086;-79
2022/10/26 15:38:22;;;;;;;9.57;1.88;;;;;;;16.93;76.28;101497.28;10194539;29;20048;-78
2022/10/26 15:43:25;;;;;;;11.40;2.67;;;;;;;16.76;76.83;101498.97;10201738;29;20098;-78
2022/10/26 15:48:31;;;;;;;6.95;1.88;;;;;;;16.58;77.47;101502.44;10194610;29;20059;-76
2022/10/26 15:53:32;;;;;;;8.70;2.80;;;;;;;16.40;78.14;101509.41;10188773;29;20056;-78
2022/10/26 15:58:34;;;;;;;8.23;1.98;;;;;;;16.26;78.59;101513.75;10191876;29;20059;-76
2022/10/26 16:03:35;;;;;;;7.10;1.67;;;;;;;16.10;78.98;101535.69;10177326;29;20067;-76
2022/10/26 16:08:38;;;;;;;4.40;1.90;;;;;;;15.96;79.68;101536.47;10177275;29;20560;-80
2022/10/26 16:13:39;;;;;;;6.25;2.40;;;;;;;15.79;80.26;101532.81;10181015;29;20044;-79
2022/10/26 16:18:41;;;;;;;5.50;2.13;;;;;;;15.58;80.79;101526.47;10192782;29;20039;-78
2022/10/26 16:23:51;;;;;;;5.45;2.13;;;;;;;15.44;81.16;101552.75;10189264;29;20083;-78
2022/10/26 16:28:53;;;;;;;7.47;2.17;;;;;;;15.14;82.12;101558.59;10185462;29;20056;-76
2022/10/26 16:33:54;;;;;;;8.65;3.10;;;;;;;14.88;82.41;101560.94;10191213;29;20055;-79
2022/10/26 16:39:00;;;;;;;9.02;2.20;;;;;;;14.69;83.05;101573.03;10187512;29;20050;-80
2022/10/26 16:44:02;;;;;;;5.97;2.35;;;;;;;14.49;83.77;101571.84;10193568;29;20155;-76
2022/10/26 16:49:03;;;;;;;9.90;2.70;;;;;;;14.38;84.09;101585.75;10198505;29;20063;-77
2022/10/26 16:54:05;;;;;;;7.90;2.60;;;;;;;14.24;84.78;101604.88;10200430;29;20043;-73
2022/10/26 16:59:08;;;;;;;8.88;2.97;;;;;;;14.07;85.29;101606.38;10200926;29;20040;-75
2022/10/26 17:04:09;;;;;;;6.55;2.53;;;;;;;13.92;85.70;101609.66;10201084;29;20441;-75
2022/10/26 17:09:11;;;;;;;8.23;3.13;;;;;;;13.84;86.27;101619.16;10201362;29;20055;-73
2022/10/26 17:14:12;;;;;;;7.35;3.53;;;;;;;13.76;86.55;101626.91;10201162;29;20139;-76
2022/10/26 17:19:14;;;;;;;8.88;3.35;;;;;;;13.65;87.14;101646.91;10200519;29;20044;-75
2022/10/26 17:24:17;;;;;;;7.85;3.10;;;;;;;13.56;87.57;101648.50;10182858;29;20136;-74
2022/10/26 17:29:19;;;;;;;9.73;3.00;;;;;;;13.60;87.97;101668.75;10200218;29;20091;-75
2022/10/26 17:34:20;;;;;;;7.90;3.60;;;;;;;13.57;88.68;101673.97;10183051;29;20056;-75
2022/10/26 17:39:22;;;;;;;12.90;4.30;;;;;;;13.70;89.14;101682.09;10198591;29;20221;-76
2022/10/26 17:44:23;;;;;;;11.82;3.85;;;;;;;13.64;89.26;101684.59;10199977;29;20051;-74
2022/10/26 17:49:25;;;;;;;9.85;4.15;;;;;;;13.70;89.62;101695.25;10199096;29;20046;-73
2022/10/26 17:54:29;;;;;;;15.20;4.80;;;;;;;13.74;89.90;101694.44;10199379;29;20074;-75
2022/10/26 17:59:31;;;;;;;11.95;4.65;;;;;;;13.73;90.18;101696.19;10198744;29;20424;-74
2022/10/26 18:04:32;;;;;;;9.63;4.63;;;;;;;13.61;90.30;101712.63;10199002;29;20509;-75
2022/10/26 18:09:34;;;;;;;11.52;4.70;;;;;;;13.51;90.29;101715.94;10197362;29;20043;-75
2022/10/26 18:14:36;;;;;;;10.77;4.82;;;;;;;13.39;90.59;101724.47;10199019;29;20052;-73
2022/10/26 18:19:37;;;;;;;11.80;4.80;;;;;;;13.30;90.73;101732.16;10197718;29;20476;-74
2022/10/26 18:24:39;;;;;;;11.63;5.30;;;;;;;13.30;91.23;101731.25;10198317;29;20147;-74
2022/10/26 18:29:40;;;;;;;11.32;5.03;;;;;;;13.30;91.33;101726.91;10197919;29;20044;-74
2022/10/26 18:34:42;;;;;;;14.20;5.13;;;;;;;13.24;91.65;101738.16;10198570;29;20124;-73
2022/10/26 18:39:43;;;;;;;16.67;5.00;;;;;;;13.13;91.58;101749.31;10196878;29;20040;-75
2022/10/26 18:44:45;;;;;;;13.98;4.88;;;;;;;12.99;91.97;101755.13;10198571;29;20078;-78
2022/10/26 18:49:46;;;;;;;12.32;5.75;;;;;;;12.94;92.00;101761.13;10197735;29;20584;-75
2022/10/26 18:54:49;;;;;;;10.13;5.50;;;;;;;12.84;92.10;101755.69;10197610;29;20106;-74
2022/10/26 18:59:50;;;;;;;26.65;5.38;;;;;;;12.77;92.41;101766.88;10195598;29;20071;-79
2022/10/26 19:04:57;;;;;;;13.40;5.38;;;;;;;12.66;92.48;101771.91;10196340;29;20043;-77
2022/10/26 19:09:59;;;;;;;13.20;5.50;;;;;;;12.65;92.67;101777.13;10177709;29;20036;-76
2022/10/26 19:15:00;;;;;;;13.95;5.20;;;;;;;12.57;92.83;101779.56;10196003;29;20515;-77
2022/10/26 19:20:02;;;;;;;13.80;5.82;;;;;;;12.55;93.26;101791.78;10195610;29;20102;-78
2022/10/26 19:25:04;;;;;;;13.80;6.18;;;;;;;12.65;93.65;101782.38;10196911;29;20501;-77
2022/10/26 19:30:06;;;;;;;13.52;5.55;;;;;;;12.74;93.98;101793.09;10195911;29;20478;-78
2022/10/26 19:35:08;;;;;;;16.10;6.57;;;;;;;12.77;94.15;101797.56;10188956;29;20055;-76
2022/10/26 19:40:10;;;;;;;12.52;6.22;;;;;;;12.81;94.39;101799.41;10195672;29;20067;-76
2022/10/26 19:45:11;;;;;;;14.18;6.85;;;;;;;12.84;94.68;101803.00;10179510;29;20083;-77
2022/10/26 19:50:13;;;;;;;13.27;6.57;;;;;;;13.06;94.92;101808.75;10195726;29;20051;-76
2022/10/26 19:55:14;;;;;;;17.13;6.45;;;;;;;13.17;95.20;101804.63;10195600;29;20107;-80
2022/10/26 20:00:16;;;;;;;11.93;6.47;;;;;;;13.30;95.32;101818.03;10195079;29;20496;-81
2022/10/26 20:05:17;;;;;;;14.13;6.35;;;;;;;13.40;95.49;101817.44;10195582;29;20507;-80
2022/10/26 20:10:19;;;;;;;17.27;6.20;;;;;;;13.47;95.36;101826.38;10195208;29;20050;-76
2022/10/26 20:15:20;;;;;;;10.35;5.70;;;;;;;13.49;95.64;101833.41;10196271;29;20046;-79
2022/10/26 20:20:22;;;;;;;14.32;6.43;;;;;;;13.52;95.46;101835.22;10196463;29;20536;-77
2022/10/26 20:25:27;;;;;;;14.73;6.10;;;;;;;13.47;95.32;101844.78;10186224;29;20052;-76
2022/10/26 20:30:30;;;;;;;12.23;6.18;;;;;;;13.46;95.44;101848.25;10203031;29;20459;-79
2022/10/26 20:35:32;;;;;;;13.85;6.72;;;;;;;13.48;95.24;101851.81;10186485;29;20083;-77
2022/10/26 20:40:34;;;;;;;17.17;6.10;;;;;;;13.47;95.22;101856.19;10201779;29;20492;-76
2022/10/26 20:45:36;;;;;;;12.02;5.95;;;;;;;13.45;95.32;101860.53;10202667;29;20090;-76
2022/10/26 20:50:39;;;;;;;11.95;5.85;;;;;;;13.47;95.38;101868.47;10169423;29;20052;-76
2022/10/26 20:55:50;;;;;;;13.88;5.72;;;;;;;13.46;95.32;101879.84;10202194;29;20055;-80
2022/10/26 21:00:59;;;;;;;17.05;6.03;;;;;;;13.43;95.22;101875.38;10201732;29;20075;-80
2022/10/26 21:06:01;;;;;;;10.75;5.38;;;;;;;13.49;95.50;101880.78;10186253;29;20075;-76
2022/10/26 21:11:02;;;;;;;8.68;5.18;;;;;;;13.53;95.33;101876.50;10184520;29;20449;-76
2022/10/26 21:16:06;;;;;;;12.00;5.90;;;;;;;13.53;95.12;101877.38;10201981;29;20468;-80
2022/10/26 21:21:08;;;;;;;10.13;5.25;;;;;;;13.46;95.16;101885.97;10201752;29;20524;-81
2022/10/26 21:26:10;;;;;;;12.15;5.65;;;;;;;13.46;95.30;101892.97;10201901;29;20052;-78
2022/10/26 21:31:15;;;;;;;11.98;4.95;;;;;;;13.43;95.25;101896.44;10201543;29;20075;-81
2022/10/26 21:36:17;;;;;;;10.63;4.90;;;;;;;13.40;95.20;101906.88;10180157;29;20056;-78
2022/10/26 21:41:19;;;;;;;15.25;5.57;;;;;;;13.40;95.31;101906.88;10204093;29;20047;-79
2022/10/26 21:46:21;;;;;;;10.60;5.40;;;;;;;13.31;95.15;101906.63;10187351;29;20127;-76
2022/10/26 21:51:22;;;;;;;11.55;5.80;;;;;;;13.24;95.21;101901.22;10204311;29;20043;-79
2022/10/26 21:56:24;;;;;;;15.30;6.00;;;;;;;13.23;95.34;101906.47;10204678;29;20039;-77
2022/10/26 22:01:25;;;;;;;13.23;6.07;;;;;;;13.24;95.36;101917.00;10200778;29;20456;-75
2022/10/26 22:06:27;;;;;;;12.75;5.63;;;;;;;13.25;95.52;101899.47;10201007;29;20441;-78
2022/10/26 22:11:30;;;;;;;11.10;6.03;;;;;;;13.21;95.47;101916.03;10199581;29;20468;-75
2022/10/26 22:16:32;;;;;;;13.13;5.97;;;;;;;13.25;95.44;101910.88;10183277;29;20047;-78
2022/10/26 22:21:39;;;;;;;9.68;4.95;;;;;;;13.14;95.53;101922.91;10181978;29;20111;-76
2022/10/26 22:26:41;;;;;;;11.05;4.68;;;;;;;13.04;95.37;101911.25;10198831;29;20085;-75
2022/10/26 22:31:43;;;;;;;11.82;5.50;;;;;;;13.01;95.51;101928.69;10181522;29;20152;-75
2022/10/26 22:36:44;;;;;;;16.70;5.60;;;;;;;12.95;95.52;101933.81;10198808;29;20436;-79
2022/10/26 22:41:48;;;;;;;14.25;5.88;;;;;;;12.93;95.56;101931.13;10198030;29;20075;-78
2022/10/26 22:46:49;;;;;;;13.82;5.50;;;;;;;12.82;95.63;101925.59;10181017;29;20062;-77
2022/10/26 22:51:51;;;;;;;11.50;4.57;;;;;;;12.68;95.79;101919.09;10197701;29;20102;-75
2022/10/26 22:56:52;;;;;;;9.93;5.00;;;;;;;12.60;95.83;101926.78;10197977;29;20123;-76
2022/10/26 23:01:54;;;;;;;9.30;4.97;;;;;;;12.55;95.79;101924.03;10180394;29;20051;-75
2022/10/26 23:06:55;;;;;;;14.10;5.40;;;;;;;12.47;95.83;101929.91;10198191;29;20071;-75
2022/10/26 23:11:57;;;;;;;9.15;4.50;;;;;;;12.44;95.99;101932.44;10196885;29;20488;-79
2022/10/26 23:16:58;;;;;;;9.55;4.78;;;;;;;12.38;96.03;101946.28;10197211;29;20766;-76